Time;durP1;ratioP1;P1;durP2;ratioP2;P2;SDS_P1;SDS_P2;PMS_P1;PMS_P2;Temp;Humidity;BMP_temperature;BMP_pressure;BME280_temperature;BME280_humidity;BME280_pressure;Samples;Min_cycle;Max_cycle;Signal;HPM_P1;HPM_P2
2023/12/21 00:02:40;;;;;;;7.68;5.70;;;;;;;;;;10269575;28;20050;-60
2023/12/21 00:07:41;;;;;;;7.70;5.38;;;;;;;;;;10270170;28;20038;-60
2023/12/21 00:12:41;;;;;;;14.38;6.22;;;;;;;;;;10270059;28;20419;-60
2023/12/21 00:17:42;;;;;;;10.35;5.97;;;;;;;;;;10269662;28;20479;-60
2023/12/21 00:22:42;;;;;;;11.48;5.38;;;;;;;;;;10269602;28;20052;-60
2023/12/21 00:27:43;;;;;;;7.32;5.40;;;;;;;;;;10269758;28;20034;-60
2023/12/21 00:32:43;;;;;;;8.20;5.63;;;;;;;;;;10288066;28;20030;-60
2023/12/21 00:37:44;;;;;;;9.98;6.05;;;;;;;;;;10290084;28;20031;-60
2023/12/21 00:42:46;;;;;;;8.48;5.57;;;;;;;;;;10289613;28;20101;-60
2023/12/21 00:47:48;;;;;;;9.18;5.47;;;;;;;;;;10288890;28;20356;-60
2023/12/21 00:52:49;;;;;;;6.88;5.05;;;;;;;;;;10288842;28;20101;-60
2023/12/21 00:57:49;;;;;;;9.32;6.13;;;;;;;;;;10288680;28;20023;-60
2023/12/21 01:02:50;;;;;;;7.20;5.35;;;;;;;;;;10288502;28;20053;-60
2023/12/21 01:07:51;;;;;;;8.20;5.45;;;;;;;;;;10288287;28;20399;-60
2023/12/21 01:12:51;;;;;;;6.07;5.13;;;;;;;;;;10288256;28;20375;-61
2023/12/21 01:17:52;;;;;;;6.93;5.00;;;;;;;;;;10288249;28;20031;-60
2023/12/21 01:22:53;;;;;;;7.57;5.10;;;;;;;;;;10287766;28;20034;-60
2023/12/21 01:27:53;;;;;;;8.55;5.18;;;;;;;;;;10288085;28;20038;-60
2023/12/21 01:32:54;;;;;;;6.38;5.57;;;;;;;;;;10287894;28;20030;-60
2023/12/21 01:37:54;;;;;;;8.27;5.40;;;;;;;;;;10287217;28;20438;-60
2023/12/21 01:42:55;;;;;;;7.15;5.38;;;;;;;;;;10287139;28;20038;-60
2023/12/21 01:47:56;;;;;;;7.15;5.32;;;;;;;;;;10287073;28;20026;-60
2023/12/21 01:52:59;;;;;;;6.45;4.93;;;;;;;;;;10287008;28;20066;-60
2023/12/21 01:58:00;;;;;;;5.90;4.65;;;;;;;;;;10298065;23;20039;-71
2023/12/21 02:03:01;;;;;;;7.07;4.82;;;;;;;;;;10286806;28;20413;-70
2023/12/21 02:08:02;;;;;;;8.73;4.95;;;;;;;;;;10286343;28;20493;-68
2023/12/21 02:13:02;;;;;;;7.03;5.15;;;;;;;;;;10286450;28;20110;-68
2023/12/21 02:18:06;;;;;;;6.30;4.78;;;;;;;;;;10286177;28;20031;-68
2023/12/21 02:23:09;;;;;;;7.28;5.30;;;;;;;;;;10269027;28;20023;-70
2023/12/21 02:28:10;;;;;;;7.35;4.78;;;;;;;;;;10291147;28;20023;-71
2023/12/21 02:33:10;;;;;;;9.00;4.20;;;;;;;;;;10294803;28;20050;-67
2023/12/21 02:38:11;;;;;;;6.20;4.68;;;;;;;;;;10294038;28;20522;-66
2023/12/21 02:43:11;;;;;;;6.60;4.72;;;;;;;;;;10293911;28;20058;-66
2023/12/21 02:48:12;;;;;;;5.90;4.85;;;;;;;;;;10293815;28;20027;-66
2023/12/21 02:53:13;;;;;;;6.65;4.80;;;;;;;;;;10277126;28;20026;-65
2023/12/21 02:58:13;;;;;;;6.80;4.60;;;;;;;;;;10293153;28;20046;-70
2023/12/21 03:03:14;;;;;;;6.97;4.95;;;;;;;;;;10293216;28;20023;-66
2023/12/21 03:08:15;;;;;;;5.45;4.28;;;;;;;;;;10293264;28;20371;-69
2023/12/21 03:13:15;;;;;;;6.10;4.50;;;;;;;;;;10275604;28;20482;-70
2023/12/21 03:18:16;;;;;;;7.75;4.28;;;;;;;;;;10293040;28;20505;-65
2023/12/21 03:23:16;;;;;;;6.57;4.60;;;;;;;;;;10292346;28;20463;-65
2023/12/21 03:28:17;;;;;;;5.10;4.00;;;;;;;;;;10291910;28;20466;-64
2023/12/21 03:33:17;;;;;;;4.72;4.05;;;;;;;;;;10291883;28;20097;-65
2023/12/21 03:38:18;;;;;;;5.18;4.47;;;;;;;;;;10290622;28;20502;-65
2023/12/21 03:43:20;;;;;;;5.13;4.25;;;;;;;;;;10291753;28;20073;-65
2023/12/21 03:48:20;;;;;;;7.05;4.53;;;;;;;;;;10291247;28;20031;-65
2023/12/21 03:53:21;;;;;;;5.68;4.00;;;;;;;;;;10292146;28;20027;-65
2023/12/21 03:58:21;;;;;;;6.70;4.50;;;;;;;;;;10290395;28;20521;-64
2023/12/21 04:03:22;;;;;;;10.40;4.38;;;;;;;;;;10291032;28;20027;-65
2023/12/21 04:08:23;;;;;;;5.53;3.65;;;;;;;;;;10290599;28;20033;-65
2023/12/21 04:13:24;;;;;;;4.80;3.80;;;;;;;;;;10291104;28;20110;-66
2023/12/21 04:18:24;;;;;;;5.40;4.20;;;;;;;;;;10290369;28;20030;-67
2023/12/21 04:23:25;;;;;;;4.80;4.05;;;;;;;;;;10290684;28;20027;-65
2023/12/21 04:28:25;;;;;;;4.40;3.70;;;;;;;;;;10290022;28;20394;-67
2023/12/21 04:33:26;;;;;;;5.10;4.00;;;;;;;;;;10289933;28;20110;-65
2023/12/21 04:38:26;;;;;;;4.78;4.18;;;;;;;;;;10289595;28;20035;-65
2023/12/21 04:43:27;;;;;;;5.93;3.88;;;;;;;;;;10289428;28;20030;-69
2023/12/21 04:48:28;;;;;;;3.95;3.55;;;;;;;;;;10288898;28;20019;-67
2023/12/21 04:53:28;;;;;;;5.47;3.97;;;;;;;;;;10289528;28;20360;-67
2023/12/21 04:58:29;;;;;;;5.38;3.95;;;;;;;;;;10288641;28;20050;-67
2023/12/21 05:03:29;;;;;;;5.65;4.13;;;;;;;;;;10289249;28;20034;-67
2023/12/21 05:08:30;;;;;;;5.30;3.72;;;;;;;;;;10288888;28;20073;-67
2023/12/21 05:13:31;;;;;;;7.80;3.67;;;;;;;;;;10289288;28;20035;-67
2023/12/21 05:18:31;;;;;;;5.25;3.58;;;;;;;;;;10288476;28;20451;-67
2023/12/21 05:23:32;;;;;;;5.38;3.88;;;;;;;;;;10287918;28;20086;-67
2023/12/21 05:28:32;;;;;;;5.38;3.67;;;;;;;;;;10270364;28;20035;-67
2023/12/21 05:33:33;;;;;;;4.47;3.60;;;;;;;;;;10287534;28;20085;-67
2023/12/21 05:38:36;;;;;;;3.88;3.47;;;;;;;;;;10288334;28;20066;-66
2023/12/21 05:43:37;;;;;;;4.80;3.53;;;;;;;;;;10287255;28;20445;-67
2023/12/21 05:48:38;;;;;;;4.10;3.70;;;;;;;;;;10287052;28;20039;-67
2023/12/21 05:53:39;;;;;;;4.68;3.58;;;;;;;;;;10269844;28;20027;-66
2023/12/21 05:58:39;;;;;;;7.88;3.75;;;;;;;;;;10286623;28;20077;-66
2023/12/21 06:03:40;;;;;;;4.13;3.45;;;;;;;;;;10286089;28;20092;-66
2023/12/21 06:08:40;;;;;;;4.53;3.30;;;;;;;;;;10286183;28;20026;-71
2023/12/21 06:13:41;;;;;;;3.75;3.13;;;;;;;;;;10286413;28;20077;-72
2023/12/21 06:18:41;;;;;;;5.70;4.07;;;;;;;;;;10286219;28;20027;-64
2023/12/21 06:23:42;;;;;;;4.10;3.70;;;;;;;;;;10286300;28;20027;-70
2023/12/21 06:28:43;;;;;;;5.07;3.80;;;;;;;;;;10286399;28;20034;-70
2023/12/21 06:33:43;;;;;;;6.43;3.22;;;;;;;;;;10286447;28;20039;-70
2023/12/21 06:38:44;;;;;;;4.72;3.55;;;;;;;;;;10269018;28;20030;-69
2023/12/21 06:43:44;;;;;;;8.60;3.40;;;;;;;;;;10286083;28;20027;-63
2023/12/21 06:48:45;;;;;;;11.80;4.45;;;;;;;;;;10286080;28;20074;-63
2023/12/21 06:53:45;;;;;;;11.38;5.53;;;;;;;;;;10285679;28;20046;-63
2023/12/21 06:58:46;;;;;;;12.55;6.00;;;;;;;;;;10285272;28;20050;-63
2023/12/21 07:03:47;;;;;;;12.65;6.40;;;;;;;;;;10286305;28;20114;-63
2023/12/21 07:08:47;;;;;;;14.40;7.25;;;;;;;;;;10285076;28;20467;-63
2023/12/21 07:13:48;;;;;;;23.77;7.25;;;;;;;;;;10288416;28;20026;-65
2023/12/21 07:18:50;;;;;;;23.50;6.55;;;;;;;;;;10290725;28;20033;-65
2023/12/21 07:23:50;;;;;;;16.05;6.20;;;;;;;;;;10291623;28;20055;-65
2023/12/21 07:28:51;;;;;;;16.95;7.10;;;;;;;;;;10291519;28;20027;-65
2023/12/21 07:33:51;;;;;;;21.50;6.88;;;;;;;;;;10292104;28;20038;-65
2023/12/21 07:38:52;;;;;;;22.63;6.70;;;;;;;;;;10291849;28;20034;-65
2023/12/21 07:43:53;;;;;;;13.95;6.55;;;;;;;;;;10291822;28;20391;-65
2023/12/21 07:48:54;;;;;;;12.82;6.20;;;;;;;;;;10284511;28;20478;-65
2023/12/21 07:53:54;;;;;;;13.18;5.63;;;;;;;;;;10272028;28;20027;-65
2023/12/21 07:58:55;;;;;;;11.60;6.80;;;;;;;;;;10271463;28;20039;-65
2023/12/21 08:03:55;;;;;;;12.93;6.88;;;;;;;;;;10254764;28;20429;-65
2023/12/21 08:08:56;;;;;;;12.95;5.82;;;;;;;;;;10271352;28;20350;-65
2023/12/21 08:13:57;;;;;;;12.30;5.57;;;;;;;;;;10271278;28;20441;-65
2023/12/21 08:18:57;;;;;;;12.70;6.13;;;;;;;;;;10272575;28;20027;-65
2023/12/21 08:23:58;;;;;;;12.57;6.43;;;;;;;;;;10271437;28;20239;-65
2023/12/21 08:28:59;;;;;;;12.82;5.72;;;;;;;;;;10271070;28;20027;-65
2023/12/21 08:34:01;;;;;;;18.08;5.70;;;;;;;;;;10270429;28;20541;-65
2023/12/21 08:39:03;;;;;;;13.10;5.90;;;;;;;;;;10270235;28;20038;-65
2023/12/21 08:44:04;;;;;;;12.70;5.90;;;;;;;;;;10269697;28;20495;-65
2023/12/21 08:49:05;;;;;;;13.43;5.47;;;;;;;;;;10269847;28;20027;-65
2023/12/21 08:54:06;;;;;;;10.90;5.75;;;;;;;;;;10269729;28;20215;-65
2023/12/21 08:59:07;;;;;;;17.85;6.70;;;;;;;;;;10269855;28;20525;-64
2023/12/21 09:04:07;;;;;;;14.43;5.35;;;;;;;;;;10269577;28;20038;-64
2023/12/21 09:09:09;;;;;;;10.50;6.10;;;;;;;;;;10268575;28;20042;-65
2023/12/21 09:14:09;;;;;;;13.98;6.43;;;;;;;;;;10268622;28;20034;-64
2023/12/21 09:19:10;;;;;;;10.68;5.97;;;;;;;;;;10268679;28;20046;-64
2023/12/21 09:24:10;;;;;;;12.35;6.00;;;;;;;;;;10267860;28;20026;-64
2023/12/21 09:29:12;;;;;;;9.35;5.57;;;;;;;;;;10277467;28;20026;-64
2023/12/21 09:34:13;;;;;;;8.82;5.70;;;;;;;;;;10285257;28;20023;-64
2023/12/21 09:39:14;;;;;;;11.32;5.75;;;;;;;;;;10286804;28;20035;-64
2023/12/21 09:44:17;;;;;;;10.55;6.10;;;;;;;;;;10287212;28;20451;-63
2023/12/21 09:49:19;;;;;;;10.50;6.30;;;;;;;;;;10270181;28;20027;-63
2023/12/21 09:54:21;;;;;;;9.57;6.47;;;;;;;;;;10270196;28;20035;-64
2023/12/21 09:59:22;;;;;;;13.27;6.22;;;;;;;;;;10269479;28;20475;-64
2023/12/21 10:04:23;;;;;;;8.10;5.70;;;;;;;;;;10270161;28;20387;-64
2023/12/21 10:09:25;;;;;;;9.07;6.05;;;;;;;;;;10270045;28;20042;-64
2023/12/21 10:14:27;;;;;;;10.85;6.32;;;;;;;;;;10286402;28;20041;-64
2023/12/21 10:19:28;;;;;;;10.20;6.25;;;;;;;;;;10286930;28;20117;-64
2023/12/21 10:24:30;;;;;;;12.18;6.35;;;;;;;;;;10286468;28;20027;-64
2023/12/21 10:29:32;;;;;;;17.13;6.72;;;;;;;;;;10286246;28;20022;-64
2023/12/21 10:34:35;;;;;;;12.15;6.05;;;;;;;;;;10286743;28;20027;-64
2023/12/21 10:39:36;;;;;;;12.70;6.30;;;;;;;;;;10286424;28;20402;-64
2023/12/21 10:44:37;;;;;;;8.77;6.10;;;;;;;;;;10268938;28;20023;-63
2023/12/21 10:49:40;;;;;;;8.40;6.43;;;;;;;;;;10273737;28;20049;-64
2023/12/21 10:54:42;;;;;;;8.75;5.97;;;;;;;;;;10292574;28;20101;-65
2023/12/21 10:59:44;;;;;;;9.60;6.13;;;;;;;;;;10291918;28;20086;-64
2023/12/21 11:04:45;;;;;;;12.25;6.07;;;;;;;;;;10276322;28;20031;-64
2023/12/21 11:09:46;;;;;;;9.95;6.20;;;;;;;;;;10267897;28;20033;-64
2023/12/21 11:14:47;;;;;;;10.43;5.95;;;;;;;;;;10256335;28;20056;-64
2023/12/21 11:19:48;;;;;;;12.88;6.88;;;;;;;;;;10286239;28;20058;-64
2023/12/21 11:25:03;;;;;;;8.27;6.07;;;;;;;;;;10275579;28;20035;-64
2023/12/21 11:30:14;;;;;;;10.43;5.82;;;;;;;;;;10273108;28;20031;-64
2023/12/21 11:35:25;;;;;;;10.48;6.40;;;;;;;;;;10291049;28;20406;-64
2023/12/21 11:40:26;;;;;;;12.95;6.20;;;;;;;;;;10289582;28;20054;-64
2023/12/21 11:45:30;;;;;;;9.35;6.13;;;;;;;;;;10287668;28;20058;-66
2023/12/21 11:50:33;;;;;;;13.10;6.68;;;;;;;;;;10291553;28;20438;-64
2023/12/21 11:55:44;;;;;;;10.35;6.05;;;;;;;;;;10291621;28;20122;-64
2023/12/21 12:00:53;;;;;;;9.48;5.60;;;;;;;;;;10289895;28;20066;-64
2023/12/21 12:06:01;;;;;;;8.93;5.57;;;;;;;;;;10277433;28;20031;-64
2023/12/21 12:11:01;;;;;;;11.95;6.05;;;;;;;;;;10290088;28;20082;-64
2023/12/21 12:16:02;;;;;;;9.15;6.18;;;;;;;;;;10290734;28;20537;-65
2023/12/21 12:21:03;;;;;;;8.23;5.82;;;;;;;;;;10291004;28;20383;-65
2023/12/21 12:26:04;;;;;;;8.82;5.85;;;;;;;;;;10289529;28;20035;-65
2023/12/21 12:31:05;;;;;;;12.85;6.75;;;;;;;;;;10290134;28;20047;-65
2023/12/21 12:36:07;;;;;;;8.02;6.10;;;;;;;;;;10287118;28;20107;-65
2023/12/21 12:41:07;;;;;;;11.10;5.97;;;;;;;;;;10282939;28;20045;-65
2023/12/21 12:46:08;;;;;;;9.43;5.95;;;;;;;;;;10290224;28;20031;-65
2023/12/21 12:51:12;;;;;;;13.15;6.22;;;;;;;;;;10289216;28;20097;-65
2023/12/21 12:56:13;;;;;;;9.35;5.75;;;;;;;;;;10285796;28;20026;-66
2023/12/21 13:01:13;;;;;;;9.00;5.50;;;;;;;;;;10251354;28;20407;-65
2023/12/21 13:06:14;;;;;;;8.23;5.55;;;;;;;;;;10268198;28;20043;-65
2023/12/21 13:11:15;;;;;;;9.38;5.85;;;;;;;;;;10268932;28;20387;-65
2023/12/21 13:16:19;;;;;;;8.25;5.80;;;;;;;;;;10287321;28;20042;-65
2023/12/21 13:21:20;;;;;;;10.45;5.47;;;;;;;;;;10282047;28;20544;-65
2023/12/21 13:26:20;;;;;;;8.85;5.25;;;;;;;;;;10286464;28;20077;-65
2023/12/21 13:31:22;;;;;;;10.13;5.38;;;;;;;;;;10287882;28;20447;-65
2023/12/21 13:36:23;;;;;;;8.10;5.70;;;;;;;;;;10287027;28;20030;-65
2023/12/21 13:41:23;;;;;;;6.03;4.85;;;;;;;;;;10269750;28;20034;-65
2023/12/21 13:46:24;;;;;;;8.57;5.38;;;;;;;;;;10282128;28;20112;-65
2023/12/21 13:51:25;;;;;;;8.57;5.30;;;;;;;;;;10286174;28;20026;-65
2023/12/21 13:56:25;;;;;;;8.10;5.28;;;;;;;;;;10285070;28;20027;-65
2023/12/21 14:01:26;;;;;;;9.30;5.65;;;;;;;;;;10269222;28;20053;-65
2023/12/21 14:06:27;;;;;;;7.47;5.32;;;;;;;;;;10286187;28;20031;-65
2023/12/21 14:11:27;;;;;;;8.77;5.28;;;;;;;;;;10286327;28;20077;-65
2023/12/21 14:16:28;;;;;;;9.63;5.03;;;;;;;;;;10285209;28;20082;-65
2023/12/21 14:21:28;;;;;;;7.70;4.78;;;;;;;;;;10280296;28;20027;-65
2023/12/21 14:26:29;;;;;;;9.60;5.03;;;;;;;;;;10298894;28;20275;-65
2023/12/21 14:31:29;;;;;;;6.18;4.85;;;;;;;;;;10299053;28;20042;-66
2023/12/21 14:36:30;;;;;;;10.45;5.50;;;;;;;;;;10297238;28;20034;-65
2023/12/21 14:41:31;;;;;;;17.58;5.47;;;;;;;;;;10298143;28;20026;-66
2023/12/21 14:46:31;;;;;;;31.85;6.50;;;;;;;;;;10298035;28;20085;-64
2023/12/21 14:51:32;;;;;;;56.05;7.93;;;;;;;;;;10298360;28;20027;-69
2023/12/21 14:56:33;;;;;;;46.28;7.38;;;;;;;;;;10297879;28;20234;-66
2023/12/21 15:01:33;;;;;;;20.83;6.90;;;;;;;;;;10297325;28;20042;-65
2023/12/21 15:06:34;;;;;;;32.40;6.65;;;;;;;;;;10296789;28;20544;-66
2023/12/21 15:11:36;;;;;;;18.95;6.40;;;;;;;;;;10298064;28;20089;-65
2023/12/21 15:16:37;;;;;;;22.25;5.93;;;;;;;;;;10297890;28;20109;-66
2023/12/21 15:21:38;;;;;;;25.88;6.35;;;;;;;;;;10287491;28;20035;-64
2023/12/21 15:26:39;;;;;;;14.82;6.20;;;;;;;;;;10294820;28;20394;-64
2023/12/21 15:31:41;;;;;;;16.92;6.78;;;;;;;;;;10295822;28;20446;-65
2023/12/21 15:36:42;;;;;;;14.55;6.57;;;;;;;;;;10290512;28;20482;-64
2023/12/21 15:41:42;;;;;;;17.27;6.00;;;;;;;;;;10289848;28;20030;-66
2023/12/21 15:46:43;;;;;;;19.25;5.80;;;;;;;;;;10291216;28;20490;-64
2023/12/21 15:51:43;;;;;;;12.63;5.50;;;;;;;;;;10291232;28;20537;-64
2023/12/21 15:56:44;;;;;;;18.52;5.50;;;;;;;;;;10291048;28;20031;-65
2023/12/21 16:01:45;;;;;;;11.88;5.82;;;;;;;;;;10290762;28;20065;-64
2023/12/21 16:06:45;;;;;;;13.43;5.35;;;;;;;;;;10290872;28;20085;-64
2023/12/21 16:11:46;;;;;;;10.70;5.22;;;;;;;;;;10289913;28;20037;-65
2023/12/21 16:16:46;;;;;;;11.20;5.47;;;;;;;;;;10289904;28;20030;-64
2023/12/21 16:21:47;;;;;;;9.75;5.40;;;;;;;;;;10289871;28;20039;-64
2023/12/21 16:26:47;;;;;;;10.02;5.47;;;;;;;;;;10289811;28;20211;-64
2023/12/21 16:31:49;;;;;;;9.90;5.47;;;;;;;;;;10289729;28;20028;-64
2023/12/21 16:36:50;;;;;;;9.90;4.78;;;;;;;;;;10283486;28;20031;-64
2023/12/21 16:41:50;;;;;;;9.60;5.05;;;;;;;;;;10287832;28;20023;-64
2023/12/21 16:46:51;;;;;;;15.02;4.53;;;;;;;;;;10288638;28;20030;-64
2023/12/21 16:51:51;;;;;;;8.60;4.82;;;;;;;;;;10287657;28;20030;-64
2023/12/21 16:56:52;;;;;;;9.80;4.55;;;;;;;;;;10288769;28;20109;-64
2023/12/21 17:01:53;;;;;;;16.08;5.15;;;;;;;;;;10288029;28;20042;-64
2023/12/21 17:06:54;;;;;;;10.15;5.10;;;;;;;;;;10289073;28;20035;-64
2023/12/21 17:11:55;;;;;;;10.10;4.72;;;;;;;;;;10288181;28;20478;-64
2023/12/21 17:16:55;;;;;;;10.32;5.03;;;;;;;;;;10287675;28;20115;-64
2023/12/21 17:21:58;;;;;;;8.55;4.88;;;;;;;;;;10283811;28;20090;-64
2023/12/21 17:26:58;;;;;;;8.68;5.22;;;;;;;;;;10278881;28;20039;-64
2023/12/21 17:32:01;;;;;;;10.15;5.80;;;;;;;;;;10283935;28;20498;-64
2023/12/21 17:37:02;;;;;;;8.65;5.60;;;;;;;;;;10281750;28;20035;-63
2023/12/21 17:42:03;;;;;;;8.45;5.22;;;;;;;;;;10287812;28;20035;-64
2023/12/21 17:47:04;;;;;;;9.02;5.63;;;;;;;;;;10269861;28;20035;-64
2023/12/21 17:52:04;;;;;;;8.05;5.10;;;;;;;;;;10266040;28;20038;-65
2023/12/21 17:57:05;;;;;;;8.43;5.25;;;;;;;;;;10265075;28;20038;-64
2023/12/21 18:02:06;;;;;;;8.75;5.90;;;;;;;;;;10265339;28;20038;-64
2023/12/21 18:07:06;;;;;;;13.70;6.53;;;;;;;;;;10266279;28;20387;-64
2023/12/21 18:12:07;;;;;;;12.40;6.65;;;;;;;;;;10266088;28;20026;-64
2023/12/21 18:17:08;;;;;;;13.38;7.07;;;;;;;;;;10266093;28;20031;-65
2023/12/21 18:22:13;;;;;;;13.70;8.02;;;;;;;;;;10266108;28;20031;-64
2023/12/21 18:27:17;;;;;;;24.52;9.27;;;;;;;;;;10266275;28;20058;-63
2023/12/21 18:32:18;;;;;;;14.85;9.35;;;;;;;;;;10265203;28;20597;-64
2023/12/21 18:37:18;;;;;;;19.83;9.88;;;;;;;;;;10264928;28;20030;-63
2023/12/21 18:42:19;;;;;;;16.52;10.50;;;;;;;;;;10265789;28;20039;-63
2023/12/21 18:47:21;;;;;;;13.40;9.43;;;;;;;;;;10265186;28;20051;-64
2023/12/21 18:52:21;;;;;;;15.60;10.45;;;;;;;;;;10263347;28;20530;-63
2023/12/21 18:57:30;;;;;;;18.70;9.35;;;;;;;;;;10265245;28;20035;-65
2023/12/21 19:02:31;;;;;;;21.65;9.90;;;;;;;;;;10262784;28;20527;-63
2023/12/21 19:07:32;;;;;;;13.32;10.05;;;;;;;;;;10263947;28;20042;-63
2023/12/21 19:12:32;;;;;;;16.15;10.43;;;;;;;;;;10271635;28;20085;-63
2023/12/21 19:17:35;;;;;;;14.80;10.20;;;;;;;;;;10271923;28;20039;-63
2023/12/21 19:22:36;;;;;;;15.73;10.55;;;;;;;;;;10275053;28;20081;-64
2023/12/21 19:27:36;;;;;;;16.55;10.90;;;;;;;;;;10270935;28;20089;-64
2023/12/21 19:32:37;;;;;;;16.55;10.65;;;;;;;;;;10270708;28;20026;-63
2023/12/21 19:37:38;;;;;;;12.40;9.85;;;;;;;;;;10270822;28;20034;-63
2023/12/21 19:42:38;;;;;;;13.93;9.35;;;;;;;;;;10269682;28;20027;-65
2023/12/21 19:47:39;;;;;;;18.02;10.18;;;;;;;;;;10270316;28;20031;-66
2023/12/21 19:52:39;;;;;;;13.48;9.38;;;;;;;;;;10287648;28;20310;-64
2023/12/21 19:57:41;;;;;;;15.55;9.25;;;;;;;;;;10285206;28;20030;-65
2023/12/21 20:02:41;;;;;;;14.40;9.55;;;;;;;;;;10287858;28;20105;-64
2023/12/21 20:07:42;;;;;;;15.27;9.02;;;;;;;;;;10287423;28;20090;-64
2023/12/21 20:12:42;;;;;;;14.95;10.68;;;;;;;;;;10288306;28;20054;-64
2023/12/21 20:17:44;;;;;;;24.52;11.23;;;;;;;;;;10284583;28;20035;-64
2023/12/21 20:22:45;;;;;;;18.58;11.70;;;;;;;;;;10279024;28;20035;-64
2023/12/21 20:27:48;;;;;;;43.45;14.13;;;;;;;;;;10289956;28;20035;-64
2023/12/21 20:32:50;;;;;;;25.63;14.35;;;;;;;;;;10263482;28;20434;-64
2023/12/21 20:37:51;;;;;;;29.40;13.32;;;;;;;;;;10285695;28;20030;-64
2023/12/21 20:42:53;;;;;;;28.35;12.82;;;;;;;;;;10280995;28;20027;-64
2023/12/21 20:47:53;;;;;;;21.52;12.85;;;;;;;;;;10279626;28;20071;-64
2023/12/21 20:52:54;;;;;;;21.27;13.40;;;;;;;;;;10284595;28;20035;-64
2023/12/21 20:57:55;;;;;;;30.48;12.80;;;;;;;;;;10285286;28;20237;-63
2023/12/21 21:02:55;;;;;;;21.20;11.70;;;;;;;;;;10288032;28;20093;-64
2023/12/21 21:07:56;;;;;;;18.80;12.15;;;;;;;;;;10288486;28;20035;-64
2023/12/21 21:13:00;;;;;;;20.92;12.27;;;;;;;;;;10288369;28;20038;-64
2023/12/21 21:18:01;;;;;;;30.17;12.88;;;;;;;;;;10287417;28;20034;-63
2023/12/21 21:23:02;;;;;;;23.20;12.55;;;;;;;;;;10287915;28;20429;-64
2023/12/21 21:28:03;;;;;;;18.42;12.38;;;;;;;;;;10287150;28;20027;-64
2023/12/21 21:33:04;;;;;;;25.27;11.98;;;;;;;;;;10287665;28;20081;-64
2023/12/21 21:38:05;;;;;;;18.27;12.10;;;;;;;;;;10287283;28;20042;-64
2023/12/21 21:43:06;;;;;;;19.52;12.40;;;;;;;;;;10287710;28;20035;-64
2023/12/21 21:48:06;;;;;;;21.90;12.13;;;;;;;;;;10286501;28;20517;-64
2023/12/21 21:53:07;;;;;;;22.48;12.27;;;;;;;;;;10286191;28;20031;-64
2023/12/21 21:58:08;;;;;;;18.92;12.35;;;;;;;;;;10286629;28;20030;-65
2023/12/21 22:03:10;;;;;;;21.67;12.10;;;;;;;;;;10269271;28;20031;-64
2023/12/21 22:08:15;;;;;;;21.42;11.27;;;;;;;;;;10286238;28;20113;-65
2023/12/21 22:13:16;;;;;;;22.80;12.10;;;;;;;;;;10287053;28;20031;-64
2023/12/21 22:18:17;;;;;;;19.95;13.18;;;;;;;;;;10285715;28;20026;-66
2023/12/21 22:23:17;;;;;;;24.70;12.85;;;;;;;;;;10285816;28;20490;-64
2023/12/21 22:28:18;;;;;;;21.98;13.32;;;;;;;;;;10285736;28;20034;-66
2023/12/21 22:33:19;;;;;;;20.98;13.40;;;;;;;;;;10284935;28;20085;-64
2023/12/21 22:38:19;;;;;;;24.92;13.73;;;;;;;;;;10284246;28;20026;-64
2023/12/21 22:43:20;;;;;;;25.77;13.32;;;;;;;;;;10286388;28;20094;-65
2023/12/21 22:48:21;;;;;;;16.88;12.57;;;;;;;;;;10293265;28;20093;-63
2023/12/21 22:53:21;;;;;;;21.50;13.70;;;;;;;;;;10292895;28;20030;-64
2023/12/21 22:58:22;;;;;;;20.13;13.77;;;;;;;;;;10293444;28;20061;-64
2023/12/21 23:03:23;;;;;;;21.15;13.40;;;;;;;;;;10291565;28;20035;-63
2023/12/21 23:08:23;;;;;;;19.27;13.00;;;;;;;;;;10291701;28;20031;-64
2023/12/21 23:13:27;;;;;;;22.75;13.80;;;;;;;;;;10292749;28;20031;-65
2023/12/21 23:18:28;;;;;;;20.35;13.30;;;;;;;;;;10292200;28;20034;-64
2023/12/21 23:23:29;;;;;;;18.52;12.85;;;;;;;;;;10292349;28;20462;-64
2023/12/21 23:28:29;;;;;;;19.60;13.27;;;;;;;;;;10291722;28;20387;-64
2023/12/21 23:33:30;;;;;;;17.70;13.00;;;;;;;;;;10292263;28;20356;-63
2023/12/21 23:38:30;;;;;;;20.55;13.35;;;;;;;;;;10289631;28;20426;-64
2023/12/21 23:43:31;;;;;;;20.75;13.00;;;;;;;;;;10283827;28;20027;-67
2023/12/21 23:48:31;;;;;;;23.40;14.40;;;;;;;;;;10285804;28;20031;-67
2023/12/21 23:53:32;;;;;;;23.85;16.10;;;;;;;;;;10280869;28;20030;-63
2023/12/21 23:58:32;;;;;;;25.92;16.63;;;;;;;;;;10268661;28;20298;-64
